Time;durP1;ratioP1;P1;durP2;ratioP2;P2;SDS_P1;SDS_P2;PMS_P1;PMS_P2;Temp;Humidity;BMP_temperature;BMP_pressure;BME280_temperature;BME280_humidity;BME280_pressure;Samples;Min_cycle;Max_cycle;Signal;HPM_P1;HPM_P2
2024/01/01 00:02:06;;;;;;;16.85;7.57;;;;;;;;;;4812025;29;20485;-82
2024/01/01 00:04:32;;;;;;;9.95;4.97;;;;;;;;;;4803870;29;20042;-82
2024/01/01 00:06:58;;;;;;;9.02;4.63;;;;;;;;;;4801167;29;20050;-82
2024/01/01 00:09:24;;;;;;;17.88;5.63;;;;;;;;;;4802774;29;20047;-82
2024/01/01 00:11:50;;;;;;;9.77;4.38;;;;;;;;;;4816511;29;20043;-82
2024/01/01 00:14:16;;;;;;;6.18;3.95;;;;;;;;;;4800642;29;20096;-82
2024/01/01 00:16:42;;;;;;;5.50;2.60;;;;;;;;;;4803056;29;20501;-82
2024/01/01 00:19:09;;;;;;;4.32;2.10;;;;;;;;;;4804557;29;20058;-82
2024/01/01 00:21:35;;;;;;;10.75;4.40;;;;;;;;;;4805239;29;20504;-82
2024/01/01 00:24:02;;;;;;;12.27;5.50;;;;;;;;;;4808366;29;20051;-82
2024/01/01 00:26:28;;;;;;;6.40;3.40;;;;;;;;;;4797777;29;20039;-82
2024/01/01 00:28:54;;;;;;;5.65;3.55;;;;;;;;;;4795750;29;20217;-82
2024/01/01 00:31:20;;;;;;;7.78;3.70;;;;;;;;;;4808019;29;20477;-82
2024/01/01 00:33:46;;;;;;;7.28;2.17;;;;;;;;;;4810254;29;20046;-82
2024/01/01 00:36:12;;;;;;;7.70;2.42;;;;;;;;;;4811507;29;20047;-82
2024/01/01 00:38:38;;;;;;;3.20;1.63;;;;;;;;;;4812092;29;20406;-82
2024/01/01 00:41:04;;;;;;;3.58;1.83;;;;;;;;;;4802912;29;20057;-82
2024/01/01 00:43:32;;;;;;;2.25;1.10;;;;;;;;;;4811484;29;20054;-82
2024/01/01 00:45:58;;;;;;;2.47;1.63;;;;;;;;;;4809885;29;20094;-82
2024/01/01 00:48:24;;;;;;;2.35;1.58;;;;;;;;;;4799998;29;20130;-83
2024/01/01 00:50:50;;;;;;;5.10;2.65;;;;;;;;;;4808390;29;20503;-82
2024/01/01 00:53:16;;;;;;;6.75;2.03;;;;;;;;;;4803292;29;20047;-82
2024/01/01 00:55:42;;;;;;;0.60;0.40;;;;;;;;;;4806797;29;20517;-81
2024/01/01 00:58:08;;;;;;;3.67;1.35;;;;;;;;;;4794172;29;20174;-83
2024/01/01 01:00:34;;;;;;;4.05;1.77;;;;;;;;;;4799290;29;20062;-83
2024/01/01 01:03:00;;;;;;;3.33;1.48;;;;;;;;;;4808677;29;20046;-83
2024/01/01 01:05:26;;;;;;;4.97;2.92;;;;;;;;;;4814901;29;20477;-82
2024/01/01 01:07:52;;;;;;;2.40;0.95;;;;;;;;;;4809928;29;20138;-82
2024/01/01 01:10:18;;;;;;;2.58;1.83;;;;;;;;;;4807178;29;20836;-82
2024/01/01 01:12:44;;;;;;;5.53;1.25;;;;;;;;;;4806448;29;20054;-82
2024/01/01 01:15:10;;;;;;;2.47;1.70;;;;;;;;;;4809608;29;20822;-82
2024/01/01 01:17:36;;;;;;;2.28;1.48;;;;;;;;;;4809327;29;20050;-81
2024/01/01 01:20:02;;;;;;;4.50;1.50;;;;;;;;;;4801386;29;20061;-81
2024/01/01 01:22:28;;;;;;;4.40;2.17;;;;;;;;;;4818236;29;20045;-82
2024/01/01 01:24:54;;;;;;;2.08;1.42;;;;;;;;;;4808499;29;20043;-82
2024/01/01 01:27:20;;;;;;;6.15;2.00;;;;;;;;;;4808103;29;20057;-82
2024/01/01 01:29:46;;;;;;;6.65;2.63;;;;;;;;;;4803702;29;20398;-82
2024/01/01 01:32:12;;;;;;;10.65;2.67;;;;;;;;;;4808106;29;20038;-82
2024/01/01 01:34:38;;;;;;;2.40;1.67;;;;;;;;;;4811813;29;20050;-82
2024/01/01 01:37:04;;;;;;;6.30;2.33;;;;;;;;;;4814426;29;20042;-82
2024/01/01 01:39:30;;;;;;;5.97;2.60;;;;;;;;;;4802075;29;20055;-81
2024/01/01 01:41:56;;;;;;;3.65;1.70;;;;;;;;;;4804212;29;20088;-81
2024/01/01 01:44:22;;;;;;;4.75;2.40;;;;;;;;;;4814479;29;20058;-81
2024/01/01 01:46:48;;;;;;;4.82;1.80;;;;;;;;;;4817496;29;20072;-82
2024/01/01 01:49:14;;;;;;;3.33;2.15;;;;;;;;;;4818971;29;20133;-81
2024/01/01 01:51:40;;;;;;;5.97;3.78;;;;;;;;;;4812271;29;20503;-81
2024/01/01 01:54:06;;;;;;;6.10;2.90;;;;;;;;;;4804795;29;20113;-81
2024/01/01 01:56:33;;;;;;;4.05;2.42;;;;;;;;;;4815291;29;20046;-81
2024/01/01 01:59:03;;;;;;;4.05;1.65;;;;;;;;;;4817454;29;20692;-82
2024/01/01 02:01:29;;;;;;;7.35;2.47;;;;;;;;;;4805105;29;20039;-81
2024/01/01 02:03:55;;;;;;;3.17;2.45;;;;;;;;;;4802843;29;20716;-82
2024/01/01 02:06:21;;;;;;;2.17;1.15;;;;;;;;;;4807150;29;20043;-82
2024/01/01 02:08:47;;;;;;;4.82;1.88;;;;;;;;;;4803675;29;20055;-82
2024/01/01 02:11:14;;;;;;;5.32;1.40;;;;;;;;;;4804783;29;20046;-82
2024/01/01 02:13:40;;;;;;;3.50;1.83;;;;;;;;;;4806224;29;20061;-82
2024/01/01 02:16:06;;;;;;;5.15;2.30;;;;;;;;;;4807141;29;20042;-81
2024/01/01 02:18:35;;;;;;;6.70;1.85;;;;;;;;;;4809047;29;20078;-81
2024/01/01 02:21:04;;;;;;;3.20;2.10;;;;;;;;;;4804616;29;20482;-81
2024/01/01 02:23:30;;;;;;;5.45;3.35;;;;;;;;;;4811240;29;20390;-81
2024/01/01 02:25:56;;;;;;;15.88;4.82;;;;;;;;;;4811131;29;20456;-82
2024/01/01 02:28:22;;;;;;;9.35;3.83;;;;;;;;;;4810277;29;20078;-82
2024/01/01 02:30:48;;;;;;;6.30;2.97;;;;;;;;;;4805769;29;20485;-82
2024/01/01 02:33:14;;;;;;;2.20;1.70;;;;;;;;;;4807894;29;20057;-82
2024/01/01 02:35:40;;;;;;;4.85;2.55;;;;;;;;;;4808180;29;20082;-82
2024/01/01 02:38:07;;;;;;;5.10;1.58;;;;;;;;;;4804771;29;20074;-82
2024/01/01 02:40:36;;;;;;;6.15;2.10;;;;;;;;;;4814132;29;20050;-81
2024/01/01 02:43:05;;;;;;;3.45;1.63;;;;;;;;;;4801987;29;20550;-81
2024/01/01 02:45:32;;;;;;;2.83;1.75;;;;;;;;;;4801690;29;20050;-81
2024/01/01 02:47:58;;;;;;;4.80;2.28;;;;;;;;;;4803038;29;20050;-81
2024/01/01 02:50:25;;;;;;;5.70;3.28;;;;;;;;;;4809011;29;20046;-81
2024/01/01 02:52:51;;;;;;;6.13;2.13;;;;;;;;;;4807115;29;20093;-81
2024/01/01 02:55:18;;;;;;;7.05;3.45;;;;;;;;;;4819118;29;20508;-81
2024/01/01 02:57:44;;;;;;;9.45;3.20;;;;;;;;;;4808885;29;20050;-81
2024/01/01 03:00:10;;;;;;;5.53;2.92;;;;;;;;;;4816724;29;20157;-82
2024/01/01 03:02:39;;;;;;;7.88;2.70;;;;;;;;;;4803286;29;20081;-82
2024/01/01 03:05:06;;;;;;;8.57;3.25;;;;;;;;;;4786159;29;20065;-82
2024/01/01 03:07:33;;;;;;;4.32;2.45;;;;;;;;;;4817366;29;20405;-83
2024/01/01 03:10:05;;;;;;;5.07;1.70;;;;;;;;;;4803113;29;20046;-82
2024/01/01 03:12:34;;;;;;;5.70;2.33;;;;;;;;;;4801793;29;20042;-83
2024/01/01 03:15:00;;;;;;;3.63;1.85;;;;;;;;;;4807682;29;20816;-83
2024/01/01 03:17:27;;;;;;;5.15;1.80;;;;;;;;;;4807234;29;20039;-82
2024/01/01 03:19:52;;;;;;;5.30;1.55;;;;;;;;;;4803127;29;20050;-82
2024/01/01 03:22:18;;;;;;;3.83;2.20;;;;;;;;;;4802132;29;20034;-82
2024/01/01 03:24:44;;;;;;;8.10;2.42;;;;;;;;;;4805321;29;20046;-82
2024/01/01 03:27:10;;;;;;;3.35;1.90;;;;;;;;;;4807632;29;20126;-82
2024/01/01 03:29:36;;;;;;;4.43;1.33;;;;;;;;;;4803484;29;20140;-82
2024/01/01 03:32:03;;;;;;;1.30;1.02;;;;;;;;;;4786725;29;20035;-82
2024/01/01 03:34:29;;;;;;;3.10;1.38;;;;;;;;;;4801087;29;20079;-82
2024/01/01 03:36:55;;;;;;;3.60;1.67;;;;;;;;;;4803139;29;20050;-83
2024/01/01 03:39:21;;;;;;;1.95;1.05;;;;;;;;;;4806799;29;20746;-83
2024/01/01 03:41:46;;;;;;;;;;;;;;;;;;4802510;29;20054;-83
2024/01/01 03:44:13;;;;;;;4.95;2.17;;;;;;;;;;4805583;29;19929;-82
2024/01/01 03:46:39;;;;;;;7.22;1.60;;;;;;;;;;4803379;29;20047;-82
2024/01/01 03:49:05;;;;;;;4.72;2.45;;;;;;;;;;4804638;29;20046;-82
2024/01/01 03:51:34;;;;;;;3.45;1.60;;;;;;;;;;4819853;29;20045;-82
2024/01/01 03:54:00;;;;;;;3.35;1.17;;;;;;;;;;4808168;29;20055;-82
2024/01/01 03:56:26;;;;;;;7.97;2.42;;;;;;;;;;4804427;29;20053;-82
2024/01/01 03:58:52;;;;;;;3.70;1.80;;;;;;;;;;4797991;29;20089;-82
2024/01/01 04:01:21;;;;;;;5.32;2.35;;;;;;;;;;4809945;29;20051;-82
2024/01/01 04:03:47;;;;;;;8.13;3.20;;;;;;;;;;4808903;29;20050;-82
2024/01/01 04:06:13;;;;;;;2.95;2.08;;;;;;;;;;4812411;29;20370;-82
2024/01/01 04:08:39;;;;;;;5.60;2.38;;;;;;;;;;4803751;29;20055;-82
2024/01/01 04:11:05;;;;;;;2.35;1.40;;;;;;;;;;4804216;29;20054;-82
2024/01/01 04:13:31;;;;;;;3.72;2.47;;;;;;;;;;4807151;29;20103;-82
2024/01/01 04:15:57;;;;;;;5.97;2.90;;;;;;;;;;4802003;29;20046;-82
2024/01/01 04:18:24;;;;;;;2.05;1.30;;;;;;;;;;4802747;29;20054;-82
2024/01/01 04:20:50;;;;;;;3.53;1.70;;;;;;;;;;4800928;29;20409;-82
2024/01/01 04:23:16;;;;;;;1.95;1.50;;;;;;;;;;4802985;29;20617;-82
2024/01/01 04:25:42;;;;;;;4.40;2.40;;;;;;;;;;4802723;29;20039;-81
2024/01/01 04:28:08;;;;;;;7.38;2.58;;;;;;;;;;4808269;29;20535;-81
2024/01/01 04:30:34;;;;;;;5.88;1.63;;;;;;;;;;4804283;29;20046;-82
2024/01/01 04:33:00;;;;;;;3.72;1.85;;;;;;;;;;4802658;29;20112;-82
2024/01/01 04:35:26;;;;;;;3.78;2.33;;;;;;;;;;4808642;29;20054;-82
2024/01/01 04:37:52;;;;;;;2.67;1.45;;;;;;;;;;4811244;29;20061;-82
2024/01/01 04:40:20;;;;;;;1.55;1.17;;;;;;;;;;4813424;29;20062;-82
2024/01/01 04:42:48;;;;;;;3.05;1.10;;;;;;;;;;4811068;29;20248;-82
2024/01/01 04:45:14;;;;;;;6.75;1.70;;;;;;;;;;4809036;29;20371;-82
2024/01/01 04:47:40;;;;;;;3.47;1.55;;;;;;;;;;4807635;29;20109;-83
2024/01/01 04:50:07;;;;;;;1.17;0.93;;;;;;;;;;4783110;29;20035;-83
2024/01/01 04:52:33;;;;;;;3.47;1.83;;;;;;;;;;4806892;29;20818;-83
2024/01/01 04:54:59;;;;;;;5.95;1.08;;;;;;;;;;4813192;29;20045;-82
2024/01/01 04:57:26;;;;;;;2.15;1.23;;;;;;;;;;4810539;29;20034;-83
2024/01/01 04:59:52;;;;;;;1.65;1.20;;;;;;;;;;4809524;29;20066;-82
2024/01/01 05:02:18;;;;;;;3.40;1.90;;;;;;;;;;4806424;29;20042;-83
2024/01/01 05:04:44;;;;;;;2.80;1.80;;;;;;;;;;4783762;30;20051;-83
2024/01/01 05:07:10;;;;;;;5.03;2.17;;;;;;;;;;4814101;29;20090;-83
2024/01/01 05:09:36;;;;;;;3.60;1.10;;;;;;;;;;4808684;29;20180;-82
2024/01/01 05:12:02;;;;;;;3.22;1.25;;;;;;;;;;4807182;29;20137;-82
2024/01/01 05:14:28;;;;;;;2.63;1.58;;;;;;;;;;4824868;29;20493;-82
2024/01/01 05:16:54;;;;;;;2.60;1.25;;;;;;;;;;4814382;29;20050;-82
2024/01/01 05:19:20;;;;;;;3.25;2.10;;;;;;;;;;4807169;29;20050;-83
2024/01/01 05:21:46;;;;;;;2.42;1.58;;;;;;;;;;4806693;29;20183;-82
2024/01/01 05:24:14;;;;;;;2.60;1.08;;;;;;;;;;4806727;29;20130;-82
2024/01/01 05:26:40;;;;;;;1.52;0.85;;;;;;;;;;4811540;29;20050;-82
2024/01/01 05:29:07;;;;;;;4.13;1.48;;;;;;;;;;4812632;29;20501;-83
2024/01/01 05:31:33;;;;;;;4.55;1.35;;;;;;;;;;4813511;29;20844;-83
2024/01/01 05:33:59;;;;;;;3.15;0.93;;;;;;;;;;4806523;29;20042;-82
2024/01/01 05:36:25;;;;;;;1.50;1.30;;;;;;;;;;4817357;29;20094;-83
2024/01/01 05:38:51;;;;;;;1.50;1.08;;;;;;;;;;4807869;29;20485;-83
2024/01/01 05:41:17;;;;;;;1.95;1.23;;;;;;;;;;4818492;29;20055;-82
2024/01/01 05:43:43;;;;;;;2.85;1.52;;;;;;;;;;4813109;29;20054;-82
2024/01/01 05:46:09;;;;;;;1.05;0.70;;;;;;;;;;4823052;29;20047;-82
2024/01/01 05:48:35;;;;;;;1.75;0.65;;;;;;;;;;4815678;29;20042;-82
2024/01/01 05:51:03;;;;;;;3.15;1.02;;;;;;;;;;4797691;29;20047;-81
2024/01/01 05:53:29;;;;;;;1.60;0.75;;;;;;;;;;4808184;29;20470;-81
2024/01/01 05:55:55;;;;;;;2.15;1.17;;;;;;;;;;4808571;29;20061;-81
2024/01/01 05:58:22;;;;;;;0.65;0.57;;;;;;;;;;4793033;29;20057;-81
2024/01/01 06:00:48;;;;;;;4.05;0.90;;;;;;;;;;4808086;29;20054;-82
2024/01/01 06:03:14;;;;;;;3.15;0.98;;;;;;;;;;4818770;29;20738;-81
2024/01/01 06:05:40;;;;;;;0.73;0.50;;;;;;;;;;4800066;29;20053;-81
2024/01/01 06:08:06;;;;;;;1.75;0.32;;;;;;;;;;4810139;29;20470;-82
2024/01/01 06:10:35;;;;;;;2.17;0.52;;;;;;;;;;4810949;29;20035;-81
2024/01/01 06:13:02;;;;;;;0.60;0.38;;;;;;;;;;4795661;29;20126;-82
2024/01/01 06:15:28;;;;;;;1.45;0.30;;;;;;;;;;4808781;29;20059;-82
2024/01/01 06:17:54;;;;;;;3.95;0.57;;;;;;;;;;4814305;29;20046;-82
2024/01/01 06:20:20;;;;;;;0.85;0.30;;;;;;;;;;4819059;29;20168;-82
2024/01/01 06:22:49;;;;;;;1.63;0.50;;;;;;;;;;4818471;29;20167;-82
2024/01/01 06:25:16;;;;;;;1.25;0.60;;;;;;;;;;4808836;29;20485;-82
2024/01/01 06:27:42;;;;;;;0.98;0.63;;;;;;;;;;4803465;29;20052;-81
2024/01/01 06:30:09;;;;;;;2.42;0.95;;;;;;;;;;4804680;29;20855;-81
2024/01/01 06:32:35;;;;;;;1.10;0.73;;;;;;;;;;4805785;29;20043;-82
2024/01/01 06:35:04;;;;;;;0.77;0.50;;;;;;;;;;4804826;29;20192;-81
2024/01/01 06:37:30;;;;;;;0.65;0.43;;;;;;;;;;4809030;29;20383;-81
2024/01/01 06:39:56;;;;;;;;;;;;;;;;;;4811058;29;20053;-81
2024/01/01 06:42:22;;;;;;;0.90;0.35;;;;;;;;;;4797936;29;19916;-81
2024/01/01 06:44:48;;;;;;;2.22;1.00;;;;;;;;;;4810556;29;20053;-81
2024/01/01 06:47:14;;;;;;;1.05;0.82;;;;;;;;;;4803487;29;20055;-81
2024/01/01 06:49:40;;;;;;;2.08;1.00;;;;;;;;;;4806221;29;20510;-81
2024/01/01 06:52:07;;;;;;;2.67;0.98;;;;;;;;;;4807800;29;20100;-80
2024/01/01 06:54:33;;;;;;;0.73;0.40;;;;;;;;;;4804371;29;20054;-80
2024/01/01 06:56:59;;;;;;;1.42;0.93;;;;;;;;;;4808382;29;20046;-81
2024/01/01 06:59:28;;;;;;;0.93;0.57;;;;;;;;;;4812208;29;20046;-81
2024/01/01 07:01:54;;;;;;;1.13;0.55;;;;;;;;;;4802868;29;20042;-81
2024/01/01 07:04:21;;;;;;;1.25;0.65;;;;;;;;;;4804890;29;20047;-80
2024/01/01 07:06:47;;;;;;;1.45;0.65;;;;;;;;;;4804407;29;20091;-80
2024/01/01 07:09:13;;;;;;;2.17;0.63;;;;;;;;;;4802948;29;20084;-80
2024/01/01 07:11:39;;;;;;;1.02;0.80;;;;;;;;;;4802719;29;20046;-80
2024/01/01 07:14:05;;;;;;;8.05;0.55;;;;;;;;;;4794484;29;20053;-80
2024/01/01 07:16:31;;;;;;;6.75;1.20;;;;;;;;;;4789440;29;20055;-81
2024/01/01 07:18:57;;;;;;;1.77;1.08;;;;;;;;;;4813546;29;20096;-81
2024/01/01 07:21:23;;;;;;;1.40;1.10;;;;;;;;;;4799954;29;20126;-81
2024/01/01 07:23:49;;;;;;;2.20;0.90;;;;;;;;;;4806846;29;20435;-80
2024/01/01 07:26:15;;;;;;;2.15;1.10;;;;;;;;;;4795616;29;20043;-81
2024/01/01 07:28:42;;;;;;;1.13;0.50;;;;;;;;;;4804278;29;20101;-81
2024/01/01 07:31:08;;;;;;;1.38;0.30;;;;;;;;;;4808880;29;20049;-80
2024/01/01 07:33:34;;;;;;;3.22;1.45;;;;;;;;;;4803257;29;20046;-81
2024/01/01 07:36:00;;;;;;;3.65;1.85;;;;;;;;;;4805949;29;20057;-81
2024/01/01 07:38:26;;;;;;;2.85;1.17;;;;;;;;;;4815963;29;20050;-81
2024/01/01 07:40:52;;;;;;;1.67;1.10;;;;;;;;;;4812896;29;20416;-81
2024/01/01 07:43:18;;;;;;;1.17;0.85;;;;;;;;;;4819259;29;20043;-81
2024/01/01 07:45:44;;;;;;;2.67;0.90;;;;;;;;;;4814699;29;20080;-80
2024/01/01 07:48:10;;;;;;;2.03;0.90;;;;;;;;;;4811844;29;20043;-80
2024/01/01 07:50:36;;;;;;;3.75;0.85;;;;;;;;;;4796958;29;20050;-80
2024/01/01 07:53:03;;;;;;;2.10;0.85;;;;;;;;;;4810944;29;20046;-80
2024/01/01 07:55:29;;;;;;;4.03;1.45;;;;;;;;;;4803028;29;20058;-81
2024/01/01 07:57:55;;;;;;;1.38;0.88;;;;;;;;;;4809829;29;20057;-81
2024/01/01 08:00:23;;;;;;;2.75;0.85;;;;;;;;;;4805783;29;20070;-80
2024/01/01 08:02:49;;;;;;;1.85;0.63;;;;;;;;;;4808343;29;20095;-80
2024/01/01 08:05:15;;;;;;;1.75;0.88;;;;;;;;;;4811834;29;20047;-81
2024/01/01 08:07:47;;;;;;;1.45;0.32;;;;;;;;;;4805012;29;20047;-80
2024/01/01 08:10:13;;;;;;;1.75;0.57;;;;;;;;;;4812500;29;20051;-80
2024/01/01 08:12:39;;;;;;;1.73;0.95;;;;;;;;;;4803127;29;20126;-81
2024/01/01 08:15:05;;;;;;;2.00;1.33;;;;;;;;;;4801684;29;20138;-81
2024/01/01 08:17:31;;;;;;;1.83;0.75;;;;;;;;;;4806350;29;20486;-81
2024/01/01 08:19:57;;;;;;;3.58;1.20;;;;;;;;;;4802987;29;20065;-81
2024/01/01 08:22:23;;;;;;;1.52;1.20;;;;;;;;;;4801271;29;20043;-81
2024/01/01 08:24:49;;;;;;;1.65;0.50;;;;;;;;;;4812140;29;20475;-81
2024/01/01 08:27:15;;;;;;;1.70;0.73;;;;;;;;;;4803051;29;20092;-81
2024/01/01 08:29:42;;;;;;;2.47;0.50;;;;;;;;;;4796096;29;20059;-81
2024/01/01 08:32:08;;;;;;;5.07;1.30;;;;;;;;;;4806368;29;20047;-81
2024/01/01 08:34:34;;;;;;;1.55;1.33;;;;;;;;;;4802835;29;20051;-81
2024/01/01 08:37:04;;;;;;;3.95;0.95;;;;;;;;;;4811476;29;20042;-81
2024/01/01 08:39:30;;;;;;;3.33;1.15;;;;;;;;;;4802728;29;20035;-81
2024/01/01 08:41:56;;;;;;;3.00;0.88;;;;;;;;;;4803122;29;20051;-81
2024/01/01 08:44:22;;;;;;;1.50;1.40;;;;;;;;;;4802523;29;20043;-81
2024/01/01 08:46:48;;;;;;;0.90;0.77;;;;;;;;;;4805068;29;20051;-82
2024/01/01 08:49:14;;;;;;;0.93;0.50;;;;;;;;;;4808325;29;20086;-81
2024/01/01 08:51:40;;;;;;;2.22;1.30;;;;;;;;;;4804941;29;20538;-81
2024/01/01 08:54:07;;;;;;;1.25;0.90;;;;;;;;;;4816167;29;20035;-81
2024/01/01 08:56:33;;;;;;;0.65;0.50;;;;;;;;;;4800986;29;20058;-81
2024/01/01 08:58:59;;;;;;;0.55;0.35;;;;;;;;;;4808073;29;20455;-81
2024/01/01 09:01:25;;;;;;;1.50;1.05;;;;;;;;;;4805241;29;20058;-81
2024/01/01 09:03:51;;;;;;;2.38;0.70;;;;;;;;;;4809720;29;20428;-81
2024/01/01 09:06:17;;;;;;;1.42;0.73;;;;;;;;;;4803612;29;20043;-81
2024/01/01 09:08:43;;;;;;;2.28;0.77;;;;;;;;;;4804683;29;20041;-81
2024/01/01 09:11:09;;;;;;;2.33;1.65;;;;;;;;;;4805381;29;20153;-81
2024/01/01 09:13:35;;;;;;;3.38;1.42;;;;;;;;;;4803748;29;20046;-81
2024/01/01 09:16:02;;;;;;;2.40;1.20;;;;;;;;;;4801396;29;20567;-81
2024/01/01 09:18:29;;;;;;;3.17;1.98;;;;;;;;;;4806265;29;20047;-81
2024/01/01 09:20:55;;;;;;;2.47;0.88;;;;;;;;;;4811601;29;20054;-82
2024/01/01 09:23:23;;;;;;;3.42;1.40;;;;;;;;;;4809289;29;20587;-81
2024/01/01 09:25:50;;;;;;;5.30;1.35;;;;;;;;;;4802518;29;20903;-81
2024/01/01 09:28:16;;;;;;;2.40;1.23;;;;;;;;;;4785718;29;20426;-81
2024/01/01 09:30:42;;;;;;;1.55;0.68;;;;;;;;;;4810355;29;20055;-81
2024/01/01 09:33:08;;;;;;;0.82;0.60;;;;;;;;;;4812064;29;20078;-81
2024/01/01 09:35:34;;;;;;;4.60;1.13;;;;;;;;;;4806852;29;20051;-81
2024/01/01 09:38:03;;;;;;;1.65;0.75;;;;;;;;;;4810211;29;20141;-81
2024/01/01 09:40:29;;;;;;;5.13;2.47;;;;;;;;;;4808602;29;20050;-81
2024/01/01 09:42:55;;;;;;;4.78;1.35;;;;;;;;;;4823498;29;20737;-80
2024/01/01 09:45:21;;;;;;;1.50;0.40;;;;;;;;;;4811636;29;20119;-80
2024/01/01 09:47:47;;;;;;;4.97;1.35;;;;;;;;;;4805449;29;20118;-80
2024/01/01 09:50:13;;;;;;;1.30;0.40;;;;;;;;;;4812743;29;20138;-81
2024/01/01 09:52:39;;;;;;;1.48;0.82;;;;;;;;;;4811441;29;20070;-81
2024/01/01 09:55:05;;;;;;;2.50;0.63;;;;;;;;;;4813336;29;20092;-81
2024/01/01 09:57:31;;;;;;;0.50;0.30;;;;;;;;;;4805207;29;20112;-81
2024/01/01 09:59:59;;;;;;;0.30;0.30;;;;;;;;;;4804508;29;20780;-81
2024/01/01 10:02:26;;;;;;;1.10;0.55;;;;;;;;;;4805011;29;20084;-81
2024/01/01 10:04:52;;;;;;;1.30;0.30;;;;;;;;;;4804810;29;20046;-81
2024/01/01 10:07:27;;;;;;;0.73;0.40;;;;;;;;;;4804193;29;20057;-82
2024/01/01 10:09:53;;;;;;;0.47;0.47;;;;;;;;;;4810536;29;20070;-82
2024/01/01 10:12:22;;;;;;;1.15;0.70;;;;;;;;;;4807607;29;20046;-82
2024/01/01 10:14:49;;;;;;;1.35;0.70;;;;;;;;;;4811272;29;20085;-81
2024/01/01 10:17:17;;;;;;;0.32;0.30;;;;;;;;;;4803731;29;20082;-82
2024/01/01 10:20:01;;;;;;;2.08;0.60;;;;;;;;;;4807560;29;20046;-82
2024/01/01 10:22:31;;;;;;;2.85;0.50;;;;;;;;;;4799671;29;20842;-81
2024/01/01 10:25:13;;;;;;;0.52;0.20;;;;;;;;;;4797302;29;20489;-81
2024/01/01 10:27:43;;;;;;;0.63;0.55;;;;;;;;;;4799772;29;20406;-81
2024/01/01 10:30:09;;;;;;;0.60;0.43;;;;;;;;;;4800762;29;20153;-81
2024/01/01 10:32:35;;;;;;;3.50;0.57;;;;;;;;;;4797763;29;20127;-82
2024/01/01 10:35:03;;;;;;;2.25;1.25;;;;;;;;;;4794840;29;20054;-82
2024/01/01 10:37:30;;;;;;;1.50;0.75;;;;;;;;;;4806096;29;20125;-82
2024/01/01 10:39:59;;;;;;;0.70;0.43;;;;;;;;;;4808201;29;20056;-82
2024/01/01 10:42:31;;;;;;;2.90;0.52;;;;;;;;;;4813683;29;20050;-82
2024/01/01 10:44:57;;;;;;;0.88;0.63;;;;;;;;;;4806017;29;20115;-82
2024/01/01 10:47:23;;;;;;;4.25;1.08;;;;;;;;;;4804115;29;20042;-81
2024/01/01 10:49:56;;;;;;;0.68;0.20;;;;;;;;;;4799780;29;20510;-82
2024/01/01 10:52:22;;;;;;;1.38;0.45;;;;;;;;;;4800539;29;20074;-81
2024/01/01 10:55:11;;;;;;;2.90;1.33;;;;;;;;;;4807349;29;20074;-81
2024/01/01 10:57:57;;;;;;;5.07;1.40;;;;;;;;;;4800648;29;20038;-82
2024/01/01 11:00:41;;;;;;;2.60;1.08;;;;;;;;;;4801988;29;20941;-82
2024/01/01 11:03:07;;;;;;;4.15;2.03;;;;;;;;;;4802609;29;20090;-82
2024/01/01 11:05:34;;;;;;;2.90;0.82;;;;;;;;;;4803417;29;20043;-82
2024/01/01 11:08:00;;;;;;;1.27;0.52;;;;;;;;;;4792938;29;20047;-83
2024/01/01 11:10:40;;;;;;;1.00;0.43;;;;;;;;;;4801555;29;20039;-81
2024/01/01 11:13:09;;;;;;;1.55;0.90;;;;;;;;;;4804607;29;20058;-82
2024/01/01 11:15:47;;;;;;;2.00;0.60;;;;;;;;;;4807149;29;20105;-82
2024/01/01 11:18:22;;;;;;;12.05;0.80;;;;;;;;;;4803642;29;20070;-83
2024/01/01 11:21:00;;;;;;;0.60;0.20;;;;;;;;;;4801930;29;20108;-83
2024/01/01 11:23:46;;;;;;;0.95;0.45;;;;;;;;;;4808240;29;20046;-83
2024/01/01 11:26:24;;;;;;;0.75;0.40;;;;;;;;;;4814685;29;20073;-82
2024/01/01 11:28:54;;;;;;;0.20;0.13;;;;;;;;;;4809656;29;20054;-82
2024/01/01 11:31:20;;;;;;;0.57;0.32;;;;;;;;;;4812740;29;20137;-81
2024/01/01 11:33:58;;;;;;;0.32;0.20;;;;;;;;;;4807746;29;20047;-82
2024/01/01 11:36:30;;;;;;;1.33;0.77;;;;;;;;;;4786475;29;20055;-83
2024/01/01 11:38:56;;;;;;;0.00;0.00;;;;;;;;;;4800761;29;20405;-83
2024/01/01 11:41:23;;;;;;;1.00;0.57;;;;;;;;;;4795543;29;20061;-83
2024/01/01 11:44:12;;;;;;;;;;;;;;;;;;;;;
2024/01/01 11:46:38;;;;;;;2.63;0.60;;;;;;;;;;4810062;29;20465;-83
2024/01/01 11:49:07;;;;;;;0.20;0.20;;;;;;;;;;4801478;29;20568;-83
2024/01/01 12:03:52;;;;;;;1.38;0.80;;;;;;;;;;4788417;29;20092;-83
2024/01/01 12:12:24;;;;;;;;;;;;;;;;;;;;;
2024/01/01 12:14:52;;;;;;;1.90;0.35;;;;;;;;;;4819563;29;20499;-83
2024/01/01 12:17:42;;;;;;;0.95;0.40;;;;;;;;;;4779019;30;20054;-83
2024/01/01 12:20:20;;;;;;;1.75;0.30;;;;;;;;;;4756243;30;20059;-83
2024/01/01 12:22:48;;;;;;;2.67;1.27;;;;;;;;;;4775425;29;20054;-83
2024/01/01 12:25:32;;;;;;;0.90;0.40;;;;;;;;;;4782105;30;20050;-84
2024/01/01 12:28:40;;;;;;;;;;;;;;;;;;;;;
2024/01/01 12:34:47;;;;;;;3.33;0.88;;;;;;;;;;4747576;29;20053;-85
2024/01/01 12:37:13;;;;;;;0.10;0.10;;;;;;;;;;4807535;29;20505;-82
2024/01/01 12:39:39;;;;;;;3.78;0.55;;;;;;;;;;4812043;29;20050;-82
2024/01/01 12:42:05;;;;;;;1.70;0.68;;;;;;;;;;4800389;29;20050;-83
2024/01/01 12:44:31;;;;;;;0.40;0.10;;;;;;;;;;4796168;29;20562;-82
2024/01/01 12:46:57;;;;;;;0.32;0.30;;;;;;;;;;4803629;29;20042;-83
2024/01/01 12:49:23;;;;;;;0.10;0.10;;;;;;;;;;4803730;29;20075;-83
2024/01/01 12:51:50;;;;;;;0.30;0.20;;;;;;;;;;4802057;29;20054;-81
2024/01/01 12:54:16;;;;;;;0.40;0.35;;;;;;;;;;4820304;29;20050;-82
2024/01/01 12:56:42;;;;;;;0.40;0.30;;;;;;;;;;4795106;29;20133;-82
2024/01/01 12:59:09;;;;;;;0.80;0.52;;;;;;;;;;4819339;29;20154;-82
2024/01/01 13:01:35;;;;;;;2.45;0.68;;;;;;;;;;4818494;29;20046;-83
2024/01/01 13:04:04;;;;;;;1.70;0.90;;;;;;;;;;4795853;29;20512;-83
2024/01/01 13:06:30;;;;;;;1.25;0.60;;;;;;;;;;4809104;29;20042;-81
2024/01/01 13:08:56;;;;;;;0.85;0.63;;;;;;;;;;4818839;29;20046;-81
2024/01/01 13:11:22;;;;;;;1.77;0.98;;;;;;;;;;4828014;29;20043;-81
2024/01/01 13:13:48;;;;;;;1.55;0.20;;;;;;;;;;4825452;29;20046;-81
2024/01/01 13:16:14;;;;;;;0.28;0.25;;;;;;;;;;4817153;29;20097;-81
2024/01/01 13:18:40;;;;;;;1.90;1.00;;;;;;;;;;4820083;29;20054;-82
2024/01/01 13:21:07;;;;;;;3.00;0.60;;;;;;;;;;4824525;29;20054;-81
2024/01/01 13:23:33;;;;;;;0.57;0.17;;;;;;;;;;4822781;29;20041;-81
2024/01/01 13:25:59;;;;;;;0.30;0.10;;;;;;;;;;4823631;29;20934;-82
2024/01/01 13:28:25;;;;;;;1.33;0.52;;;;;;;;;;4807338;29;20038;-82
2024/01/01 13:30:52;;;;;;;2.95;0.88;;;;;;;;;;4814016;29;20034;-83
2024/01/01 13:33:18;;;;;;;0.52;0.20;;;;;;;;;;4799969;29;20071;-84
2024/01/01 13:35:44;;;;;;;0.65;0.40;;;;;;;;;;4818159;29;20082;-84
2024/01/01 13:38:10;;;;;;;1.27;0.82;;;;;;;;;;4820405;29;20175;-84
2024/01/01 13:40:39;;;;;;;3.20;0.40;;;;;;;;;;4817388;29;20468;-84
2024/01/01 13:43:05;;;;;;;3.85;1.70;;;;;;;;;;4823070;29;20041;-84
2024/01/01 13:45:32;;;;;;;1.27;0.77;;;;;;;;;;4821337;29;20046;-83
2024/01/01 13:47:58;;;;;;;1.40;0.68;;;;;;;;;;4823352;29;20389;-84
2024/01/01 13:50:24;;;;;;;1.38;0.85;;;;;;;;;;4821388;29;20051;-81
2024/01/01 13:52:50;;;;;;;0.95;0.40;;;;;;;;;;4820766;29;20493;-82
2024/01/01 13:55:20;;;;;;;2.90;1.63;;;;;;;;;;4810295;29;20046;-81
2024/01/01 13:57:46;;;;;;;3.65;1.08;;;;;;;;;;4824080;29;20558;-82
2024/01/01 14:00:14;;;;;;;2.90;1.45;;;;;;;;;;4820729;29;20153;-82
2024/01/01 14:02:41;;;;;;;5.35;1.13;;;;;;;;;;4797170;29;20049;-82
2024/01/01 14:05:07;;;;;;;1.40;0.40;;;;;;;;;;4820390;29;20081;-82
2024/01/01 14:07:33;;;;;;;0.90;0.45;;;;;;;;;;4820691;29;20185;-82
2024/01/01 14:09:59;;;;;;;1.23;0.57;;;;;;;;;;4818695;29;20054;-82
2024/01/01 14:12:26;;;;;;;0.65;0.32;;;;;;;;;;4799630;29;20594;-83
2024/01/01 14:14:52;;;;;;;1.17;0.22;;;;;;;;;;4827771;29;20050;-82
2024/01/01 14:17:18;;;;;;;0.63;0.25;;;;;;;;;;4819453;29;20057;-83
2024/01/01 14:19:44;;;;;;;0.20;0.10;;;;;;;;;;4804994;29;20141;-82
2024/01/01 14:22:10;;;;;;;1.80;0.65;;;;;;;;;;4819489;29;20053;-82
2024/01/01 14:24:36;;;;;;;0.82;0.70;;;;;;;;;;4824773;29;20519;-82
2024/01/01 14:27:06;;;;;;;1.25;0.70;;;;;;;;;;4811430;29;20447;-81
2024/01/01 14:29:33;;;;;;;5.05;2.25;;;;;;;;;;4818036;29;20075;-82
2024/01/01 14:32:00;;;;;;;3.13;1.50;;;;;;;;;;4821079;29;20045;-82
2024/01/01 14:34:26;;;;;;;13.77;0.82;;;;;;;;;;4829671;29;20050;-81
2024/01/01 14:36:52;;;;;;;1.10;0.80;;;;;;;;;;4841347;29;20061;-82
2024/01/01 14:39:18;;;;;;;0.25;0.13;;;;;;;;;;4829111;29;20125;-82
2024/01/01 14:41:44;;;;;;;0.82;0.40;;;;;;;;;;4803975;29;20137;-82
2024/01/01 14:44:10;;;;;;;4.57;2.10;;;;;;;;;;4822287;29;20046;-81
2024/01/01 14:46:36;;;;;;;2.28;0.95;;;;;;;;;;4817997;29;20126;-81
2024/01/01 14:49:02;;;;;;;4.55;1.02;;;;;;;;;;4802921;29;20129;-82
2024/01/01 14:51:28;;;;;;;1.98;0.93;;;;;;;;;;4797016;29;20076;-81
2024/01/01 14:53:54;;;;;;;1.38;0.40;;;;;;;;;;4805444;29;20057;-81
2024/01/01 14:56:20;;;;;;;3.88;1.45;;;;;;;;;;4818406;29;20569;-82
2024/01/01 14:58:46;;;;;;;1.35;0.90;;;;;;;;;;4822656;29;21141;-82
2024/01/01 15:01:19;;;;;;;1.13;0.70;;;;;;;;;;4808237;29;20054;-81
2024/01/01 15:03:45;;;;;;;4.15;1.60;;;;;;;;;;4824216;29;20127;-81
2024/01/01 15:06:11;;;;;;;7.63;2.17;;;;;;;;;;4828930;29;20046;-82
2024/01/01 15:08:37;;;;;;;5.32;2.47;;;;;;;;;;4833756;29;20427;-82